DGF222 MROC-MPTO
Flight info
| Callsign | DGF222 |
|---|---|
| Flight time | 0h 51m |
| Altitude | 33000 |
| Route | TEJAR3M LIO UA317 BUFEO DCT BITOR VUMAN2A |
| Aircraft | B738/M-SDGIJ1LRWY/SB1 |
Departure
| Time | 2026-04-29 12:04 |
|---|---|
| Airport | Juan Santamaría International Airport (MROC) |
Arrival
| Time | 2026-04-29 12:55 |
|---|---|
| Airport | Tocumen International Airport (MPTO) |
| Time | Latitude | Longitude | Altitude | Speed | Heading |
|---|---|---|---|---|---|
| 2026-04-29 11:42 | 9.99743 | -84.20351 | 3031 ft | 0 kts | 340° |
| 2026-04-29 11:56 | 9.99729 | -84.20347 | 3031 ft | 2 kts | 339° |
| 2026-04-29 11:56 | 9.99716 | -84.20342 | 3031 ft | 2 kts | 339° |
| 2026-04-29 11:56 | 9.99704 | -84.20338 | 3030 ft | 0 kts | 340° |
| 2026-04-29 11:57 | 9.99697 | -84.20334 | 3030 ft | 1 kts | 299° |
| 2026-04-29 11:57 | 9.99695 | -84.20327 | 3030 ft | 0 kts | 254° |
| 2026-04-29 11:57 | 9.99698 | -84.20321 | 3031 ft | 1 kts | 249° |
| 2026-04-29 11:57 | 9.99698 | -84.20319 | 3031 ft | 0 kts | 249° |
| 2026-04-29 11:59 | 9.99690 | -84.20342 | 3030 ft | 8 kts | 249° |
| 2026-04-29 11:59 | 9.99657 | -84.20435 | 3025 ft | 19 kts | 250° |
| 2026-04-29 11:59 | 9.99597 | -84.20591 | 3016 ft | 27 kts | 249° |
| 2026-04-29 12:00 | 9.99519 | -84.20799 | 3005 ft | 35 kts | 249° |
| 2026-04-29 12:00 | 9.99427 | -84.21046 | 2992 ft | 39 kts | 249° |
| 2026-04-29 12:00 | 9.99340 | -84.21279 | 2980 ft | 33 kts | 249° |
| 2026-04-29 12:00 | 9.99257 | -84.21499 | 2969 ft | 33 kts | 249° |
| 2026-04-29 12:01 | 9.99177 | -84.21714 | 2954 ft | 29 kts | 249° |
| 2026-04-29 12:01 | 9.99104 | -84.21909 | 2944 ft | 25 kts | 249° |
| 2026-04-29 12:01 | 9.99097 | -84.22093 | 2934 ft | 24 kts | 254° |
| 2026-04-29 12:01 | 9.99019 | -84.22208 | 2932 ft | 14 kts | 180° |
| 2026-04-29 12:02 | 9.98936 | -84.22180 | 2935 ft | 10 kts | 150° |
| 2026-04-29 12:02 | 9.98924 | -84.22133 | 2938 ft | 5 kts | 72° |
| 2026-04-29 12:02 | 9.98926 | -84.22128 | 2938 ft | 0 kts | 69° |
| 2026-04-29 12:03 | 9.98933 | -84.22111 | 2939 ft | 17 kts | 69° |
| 2026-04-29 12:03 | 9.99066 | -84.21754 | 2956 ft | 89 kts | 70° |
| 2026-04-29 12:04 | 9.99366 | -84.20952 | 2995 ft | 151 kts | 70° |
| 2026-04-29 12:04 | 9.99780 | -84.19846 | 3367 ft | 175 kts | 72° |
| 2026-04-29 12:04 | 10.00160 | -84.18617 | 3984 ft | 191 kts | 73° |
| 2026-04-29 12:04 | 10.00608 | -84.17407 | 4929 ft | 185 kts | 69° |
| 2026-04-29 12:05 | 10.01157 | -84.16209 | 5483 ft | 194 kts | 58° |
| 2026-04-29 12:05 | 10.01886 | -84.15022 | 5945 ft | 210 kts | 64° |
| 2026-04-29 12:05 | 10.02299 | -84.13551 | 6409 ft | 227 kts | 88° |
| 2026-04-29 12:05 | 10.02026 | -84.11959 | 7101 ft | 235 kts | 110° |
| 2026-04-29 12:06 | 10.01137 | -84.10519 | 7618 ft | 252 kts | 133° |
| 2026-04-29 12:06 | 9.99762 | -84.09338 | 8159 ft | 267 kts | 141° |
| 2026-04-29 12:06 | 9.98212 | -84.08178 | 8678 ft | 282 kts | 141° |
| 2026-04-29 12:06 | 9.96648 | -84.06975 | 9379 ft | 288 kts | 141° |
| 2026-04-29 12:07 | 9.95062 | -84.05709 | 10134 ft | 292 kts | 140° |
| 2026-04-29 12:07 | 9.93457 | -84.04399 | 10685 ft | 304 kts | 139° |
| 2026-04-29 12:07 | 9.91754 | -84.02996 | 11144 ft | 319 kts | 139° |
| 2026-04-29 12:07 | 9.89992 | -84.01559 | 11533 ft | 336 kts | 140° |
| 2026-04-29 12:08 | 9.88101 | -84.00048 | 11928 ft | 351 kts | 141° |
| 2026-04-29 12:08 | 9.86166 | -83.98517 | 12491 ft | 359 kts | 141° |
| 2026-04-29 12:08 | 9.84165 | -83.96935 | 13099 ft | 365 kts | 141° |
| 2026-04-29 12:08 | 9.82161 | -83.95349 | 13741 ft | 369 kts | 141° |
| 2026-04-29 12:09 | 9.80130 | -83.93738 | 14321 ft | 374 kts | 141° |
| 2026-04-29 12:09 | 9.78076 | -83.92104 | 14894 ft | 379 kts | 141° |
| 2026-04-29 12:09 | 9.76162 | -83.90257 | 15537 ft | 378 kts | 126° |
| 2026-04-29 12:09 | 9.75037 | -83.87872 | 16110 ft | 380 kts | 103° |
| 2026-04-29 12:10 | 9.74950 | -83.85232 | 16630 ft | 383 kts | 79° |
| 2026-04-29 12:10 | 9.75900 | -83.82699 | 17148 ft | 387 kts | 60° |
| 2026-04-29 12:10 | 9.77389 | -83.80396 | 17622 ft | 393 kts | 56° |
| 2026-04-29 12:10 | 9.78912 | -83.78097 | 18124 ft | 397 kts | 58° |
| 2026-04-29 12:11 | 9.80257 | -83.75660 | 18584 ft | 402 kts | 65° |
| 2026-04-29 12:11 | 9.81326 | -83.73047 | 19080 ft | 405 kts | 71° |
| 2026-04-29 12:11 | 9.82158 | -83.70269 | 19535 ft | 410 kts | 76° |
| 2026-04-29 12:11 | 9.82819 | -83.67484 | 20013 ft | 413 kts | 78° |
| 2026-04-29 12:12 | 9.83418 | -83.64635 | 20473 ft | 418 kts | 79° |
| 2026-04-29 12:12 | 9.84006 | -83.61708 | 20926 ft | 422 kts | 80° |
| 2026-04-29 12:12 | 9.84588 | -83.58787 | 21382 ft | 426 kts | 80° |
| 2026-04-29 12:12 | 9.85182 | -83.55842 | 21847 ft | 430 kts | 80° |
| 2026-04-29 12:13 | 9.85787 | -83.52876 | 22252 ft | 435 kts | 81° |
| 2026-04-29 12:13 | 9.86405 | -83.49882 | 22711 ft | 438 kts | 80° |
| 2026-04-29 12:13 | 9.87038 | -83.46838 | 23147 ft | 442 kts | 80° |
| 2026-04-29 12:13 | 9.87674 | -83.43803 | 23609 ft | 444 kts | 80° |
| 2026-04-29 12:14 | 9.88332 | -83.40673 | 24006 ft | 449 kts | 80° |
| 2026-04-29 12:14 | 9.88982 | -83.37589 | 24409 ft | 453 kts | 80° |
| 2026-04-29 12:14 | 9.89641 | -83.34467 | 24830 ft | 456 kts | 80° |
| 2026-04-29 12:14 | 9.90306 | -83.31322 | 25235 ft | 459 kts | 81° |
| 2026-04-29 12:15 | 9.90977 | -83.28147 | 25604 ft | 464 kts | 81° |
| 2026-04-29 12:15 | 9.91649 | -83.24963 | 26019 ft | 466 kts | 81° |
| 2026-04-29 12:15 | 9.92338 | -83.21701 | 26353 ft | 471 kts | 81° |
| 2026-04-29 12:15 | 9.93022 | -83.18461 | 26721 ft | 474 kts | 81° |
| 2026-04-29 12:16 | 9.93707 | -83.15208 | 27040 ft | 478 kts | 81° |
| 2026-04-29 12:16 | 9.94402 | -83.11910 | 27406 ft | 481 kts | 81° |
| 2026-04-29 12:16 | 9.95100 | -83.08585 | 27763 ft | 484 kts | 81° |
| 2026-04-29 12:16 | 9.95613 | -83.05203 | 28099 ft | 484 kts | 89° |
| 2026-04-29 12:17 | 9.95655 | -83.01826 | 28672 ft | 476 kts | 98° |
| 2026-04-29 12:17 | 9.95212 | -82.98564 | 29183 ft | 470 kts | 106° |
| 2026-04-29 12:17 | 9.94407 | -82.95351 | 29648 ft | 467 kts | 110° |
| 2026-04-29 12:17 | 9.93422 | -82.92224 | 30136 ft | 464 kts | 113° |
| 2026-04-29 12:18 | 9.92367 | -82.89156 | 30606 ft | 463 kts | 114° |
| 2026-04-29 12:18 | 9.91287 | -82.86086 | 31043 ft | 463 kts | 114° |
| 2026-04-29 12:18 | 9.90210 | -82.83013 | 31491 ft | 462 kts | 114° |
| 2026-04-29 12:18 | 9.89160 | -82.79974 | 31919 ft | 462 kts | 113° |
| 2026-04-29 12:19 | 9.88111 | -82.76887 | 32348 ft | 461 kts | 113° |
| 2026-04-29 12:19 | 9.87081 | -82.73809 | 32744 ft | 461 kts | 113° |
| 2026-04-29 12:19 | 9.85023 | -82.67559 | 32814 ft | 464 kts | 112° |
| 2026-04-29 12:20 | 9.83026 | -82.61392 | 32818 ft | 461 kts | 112° |
| 2026-04-29 12:20 | 9.81019 | -82.55205 | 32814 ft | 461 kts | 112° |
| 2026-04-29 12:21 | 9.78934 | -82.49096 | 32814 ft | 459 kts | 114° |
| 2026-04-29 12:21 | 9.76797 | -82.43000 | 32814 ft | 459 kts | 114° |
| 2026-04-29 12:22 | 9.74664 | -82.36919 | 32806 ft | 459 kts | 114° |
| 2026-04-29 12:22 | 9.72537 | -82.30828 | 32805 ft | 459 kts | 114° |
| 2026-04-29 12:23 | 9.70399 | -82.24695 | 32797 ft | 460 kts | 114° |
| 2026-04-29 12:23 | 9.68276 | -82.18591 | 32792 ft | 460 kts | 114° |
| 2026-04-29 12:24 | 9.66152 | -82.12489 | 32789 ft | 461 kts | 114° |
| 2026-04-29 12:24 | 9.64019 | -82.06356 | 32795 ft | 459 kts | 114° |
| 2026-04-29 12:25 | 9.61907 | -82.00286 | 32795 ft | 458 kts | 114° |
| 2026-04-29 12:26 | 9.58729 | -81.91174 | 32795 ft | 459 kts | 114° |
| 2026-04-29 12:26 | 9.56598 | -81.85064 | 32792 ft | 458 kts | 114° |
| 2026-04-29 12:27 | 9.54481 | -81.78999 | 32907 ft | 459 kts | 114° |
| 2026-04-29 12:27 | 9.52355 | -81.72914 | 32900 ft | 459 kts | 114° |
| 2026-04-29 12:28 | 9.50227 | -81.66827 | 32898 ft | 459 kts | 114° |
| 2026-04-29 12:28 | 9.48097 | -81.60735 | 32898 ft | 459 kts | 114° |
| 2026-04-29 12:29 | 9.45957 | -81.54617 | 32899 ft | 458 kts | 114° |
| 2026-04-29 12:29 | 9.43832 | -81.48549 | 32899 ft | 458 kts | 114° |
| 2026-04-29 12:30 | 9.41705 | -81.42475 | 32900 ft | 458 kts | 114° |
| 2026-04-29 12:30 | 9.39589 | -81.36437 | 32898 ft | 458 kts | 114° |
| 2026-04-29 12:31 | 9.37444 | -81.30325 | 32897 ft | 458 kts | 114° |
| 2026-04-29 12:31 | 9.35314 | -81.24259 | 32579 ft | 456 kts | 114° |
| 2026-04-29 12:31 | 9.34274 | -81.21288 | 32270 ft | 447 kts | 114° |
| 2026-04-29 12:32 | 9.33250 | -81.18358 | 31945 ft | 439 kts | 114° |
| 2026-04-29 12:32 | 9.32235 | -81.15457 | 31543 ft | 439 kts | 114° |
| 2026-04-29 12:32 | 9.31196 | -81.12507 | 31056 ft | 445 kts | 114° |
| 2026-04-29 12:32 | 9.30161 | -81.09571 | 30554 ft | 443 kts | 114° |
| 2026-04-29 12:33 | 9.29131 | -81.06642 | 30054 ft | 439 kts | 114° |
| 2026-04-29 12:33 | 9.28120 | -81.03767 | 29554 ft | 435 kts | 114° |
| 2026-04-29 12:33 | 9.27120 | -81.00921 | 29053 ft | 432 kts | 114° |
| 2026-04-29 12:33 | 9.26125 | -80.98071 | 28593 ft | 427 kts | 114° |
| 2026-04-29 12:34 | 9.25161 | -80.95258 | 28113 ft | 424 kts | 113° |
| 2026-04-29 12:34 | 9.24209 | -80.92444 | 27626 ft | 421 kts | 113° |
| 2026-04-29 12:34 | 9.23273 | -80.89665 | 27145 ft | 418 kts | 112° |
| 2026-04-29 12:34 | 9.22335 | -80.86880 | 26647 ft | 415 kts | 112° |
| 2026-04-29 12:35 | 9.21415 | -80.84152 | 26158 ft | 412 kts | 112° |
| 2026-04-29 12:35 | 9.20485 | -80.81396 | 25663 ft | 409 kts | 112° |
| 2026-04-29 12:35 | 9.19569 | -80.78690 | 25171 ft | 406 kts | 112° |
| 2026-04-29 12:35 | 9.18671 | -80.76038 | 24691 ft | 403 kts | 112° |
| 2026-04-29 12:36 | 9.17757 | -80.73342 | 24198 ft | 400 kts | 112° |
| 2026-04-29 12:36 | 9.16857 | -80.70691 | 23710 ft | 397 kts | 111° |
| 2026-04-29 12:36 | 9.15968 | -80.68072 | 23232 ft | 394 kts | 111° |
| 2026-04-29 12:36 | 9.15078 | -80.65453 | 22749 ft | 392 kts | 111° |
| 2026-04-29 12:37 | 9.14199 | -80.62865 | 22271 ft | 389 kts | 111° |
| 2026-04-29 12:37 | 9.13333 | -80.60318 | 21807 ft | 386 kts | 111° |
| 2026-04-29 12:37 | 9.12465 | -80.57765 | 21332 ft | 383 kts | 111° |
| 2026-04-29 12:37 | 9.11595 | -80.55211 | 20864 ft | 380 kts | 111° |
| 2026-04-29 12:38 | 9.10737 | -80.52689 | 20409 ft | 377 kts | 110° |
| 2026-04-29 12:38 | 9.09892 | -80.50203 | 19948 ft | 374 kts | 110° |
| 2026-04-29 12:38 | 9.09052 | -80.47736 | 19479 ft | 371 kts | 110° |
| 2026-04-29 12:38 | 9.08217 | -80.45283 | 19007 ft | 368 kts | 110° |
| 2026-04-29 12:39 | 9.07385 | -80.42840 | 18529 ft | 365 kts | 110° |
| 2026-04-29 12:39 | 9.06578 | -80.40449 | 18121 ft | 360 kts | 109° |
| 2026-04-29 12:39 | 9.05893 | -80.38068 | 17959 ft | 349 kts | 104° |
| 2026-04-29 12:39 | 9.05376 | -80.35675 | 17469 ft | 348 kts | 101° |
| 2026-04-29 12:40 | 9.04947 | -80.33257 | 17023 ft | 346 kts | 100° |
| 2026-04-29 12:40 | 9.04549 | -80.30890 | 16595 ft | 343 kts | 100° |
| 2026-04-29 12:40 | 9.04145 | -80.28537 | 16169 ft | 340 kts | 101° |
| 2026-04-29 12:40 | 9.03725 | -80.26175 | 15738 ft | 337 kts | 101° |
| 2026-04-29 12:41 | 9.03305 | -80.23883 | 15321 ft | 335 kts | 101° |
| 2026-04-29 12:41 | 9.02876 | -80.21577 | 14902 ft | 332 kts | 101° |
| 2026-04-29 12:41 | 9.02448 | -80.19303 | 14486 ft | 329 kts | 101° |
| 2026-04-29 12:41 | 9.02023 | -80.17049 | 14074 ft | 326 kts | 101° |
| 2026-04-29 12:42 | 9.01597 | -80.14792 | 13661 ft | 324 kts | 101° |
| 2026-04-29 12:42 | 9.01181 | -80.12584 | 13259 ft | 321 kts | 101° |
| 2026-04-29 12:42 | 9.00765 | -80.10383 | 12857 ft | 318 kts | 101° |
| 2026-04-29 12:42 | 9.00348 | -80.08173 | 12449 ft | 316 kts | 101° |
| 2026-04-29 12:43 | 8.99941 | -80.06017 | 12048 ft | 314 kts | 101° |
| 2026-04-29 12:43 | 8.99531 | -80.03847 | 11649 ft | 311 kts | 100° |
| 2026-04-29 12:43 | 8.99133 | -80.01734 | 11260 ft | 309 kts | 100° |
| 2026-04-29 12:43 | 8.98732 | -79.99612 | 10868 ft | 306 kts | 100° |
| 2026-04-29 12:44 | 8.98330 | -79.97479 | 10473 ft | 304 kts | 100° |
| 2026-04-29 12:44 | 8.97937 | -79.95400 | 10090 ft | 302 kts | 99° |
| 2026-04-29 12:44 | 8.97549 | -79.93344 | 9845 ft | 294 kts | 99° |
| 2026-04-29 12:44 | 8.97169 | -79.91341 | 9605 ft | 287 kts | 99° |
| 2026-04-29 12:45 | 8.96795 | -79.89361 | 9209 ft | 286 kts | 99° |
| 2026-04-29 12:45 | 8.96430 | -79.87428 | 8789 ft | 279 kts | 98° |
| 2026-04-29 12:45 | 8.96074 | -79.85555 | 8592 ft | 263 kts | 98° |
| 2026-04-29 12:45 | 8.95731 | -79.83738 | 8367 ft | 267 kts | 98° |
| 2026-04-29 12:46 | 8.95361 | -79.81864 | 7954 ft | 275 kts | 101° |
| 2026-04-29 12:46 | 8.94861 | -79.80034 | 7620 ft | 273 kts | 104° |
| 2026-04-29 12:46 | 8.94254 | -79.78197 | 7284 ft | 272 kts | 106° |
| 2026-04-29 12:46 | 8.93638 | -79.76403 | 6949 ft | 270 kts | 106° |
| 2026-04-29 12:47 | 8.93042 | -79.74635 | 6612 ft | 268 kts | 105° |
| 2026-04-29 12:47 | 8.92454 | -79.72851 | 6277 ft | 267 kts | 104° |
| 2026-04-29 12:47 | 8.91874 | -79.71071 | 5941 ft | 265 kts | 104° |
| 2026-04-29 12:47 | 8.91301 | -79.69303 | 5613 ft | 263 kts | 104° |
| 2026-04-29 12:48 | 8.90735 | -79.67561 | 5290 ft | 262 kts | 104° |
| 2026-04-29 12:48 | 8.90168 | -79.65816 | 4972 ft | 260 kts | 104° |
| 2026-04-29 12:48 | 8.89603 | -79.64078 | 4652 ft | 258 kts | 104° |
| 2026-04-29 12:48 | 8.89041 | -79.62350 | 4333 ft | 257 kts | 104° |
| 2026-04-29 12:49 | 8.88531 | -79.60654 | 4109 ft | 250 kts | 98° |
| 2026-04-29 12:49 | 8.88376 | -79.58965 | 3944 ft | 237 kts | 82° |
| 2026-04-29 12:49 | 8.88608 | -79.57312 | 3635 ft | 238 kts | 75° |
| 2026-04-29 12:49 | 8.88912 | -79.55652 | 3339 ft | 241 kts | 76° |
| 2026-04-29 12:50 | 8.89176 | -79.53983 | 3061 ft | 240 kts | 77° |
| 2026-04-29 12:50 | 8.89398 | -79.52357 | 2936 ft | 231 kts | 78° |
| 2026-04-29 12:50 | 8.89604 | -79.50774 | 2875 ft | 219 kts | 78° |
| 2026-04-29 12:50 | 8.89801 | -79.49280 | 2825 ft | 210 kts | 77° |
| 2026-04-29 12:51 | 8.90146 | -79.47929 | 2760 ft | 188 kts | 58° |
| 2026-04-29 12:51 | 8.91016 | -79.47021 | 2623 ft | 178 kts | 29° |
| 2026-04-29 12:51 | 8.92095 | -79.46417 | 2475 ft | 176 kts | 27° |
| 2026-04-29 12:51 | 8.93153 | -79.45821 | 2334 ft | 169 kts | 28° |
| 2026-04-29 12:52 | 8.94164 | -79.45245 | 2181 ft | 163 kts | 27° |
| 2026-04-29 12:52 | 8.95162 | -79.44682 | 2126 ft | 163 kts | 27° |
| 2026-04-29 12:52 | 8.96133 | -79.44132 | 1884 ft | 156 kts | 27° |
| 2026-04-29 12:52 | 8.97045 | -79.43615 | 1700 ft | 145 kts | 27° |
| 2026-04-29 12:53 | 8.97924 | -79.43119 | 1577 ft | 141 kts | 27° |
| 2026-04-29 12:53 | 8.98806 | -79.42622 | 1350 ft | 147 kts | 27° |
| 2026-04-29 12:53 | 8.99695 | -79.42118 | 1142 ft | 146 kts | 27° |
| 2026-04-29 12:53 | 9.00589 | -79.41612 | 955 ft | 149 kts | 27° |
| 2026-04-29 12:54 | 9.01505 | -79.41112 | 776 ft | 148 kts | 26° |
| 2026-04-29 12:54 | 9.02416 | -79.40615 | 571 ft | 150 kts | 28° |
| 2026-04-29 12:54 | 9.03330 | -79.40087 | 372 ft | 150 kts | 28° |
| 2026-04-29 12:54 | 9.04243 | -79.39562 | 179 ft | 151 kts | 29° |
| 2026-04-29 12:55 | 9.05165 | -79.39040 | 44 ft | 150 kts | 28° |
| 2026-04-29 12:55 | 9.06080 | -79.38526 | 45 ft | 146 kts | 31° |
| 2026-04-29 12:55 | 9.06757 | -79.38133 | 50 ft | 70 kts | 29° |
| 2026-04-29 12:55 | 9.06998 | -79.37989 | 49 ft | 34 kts | 30° |
| 2026-04-29 12:56 | 9.07151 | -79.37935 | 51 ft | 14 kts | 303° |
| 2026-04-29 12:56 | 9.07203 | -79.38012 | 52 ft | 11 kts | 292° |
| 2026-04-29 12:56 | 9.07180 | -79.38073 | 54 ft | 9 kts | 202° |
| 2026-04-29 12:56 | 9.07112 | -79.38107 | 53 ft | 12 kts | 208° |
| 2026-04-29 12:57 | 9.07024 | -79.38160 | 52 ft | 16 kts | 211° |
| 2026-04-29 12:57 | 9.06927 | -79.38232 | 54 ft | 17 kts | 229° |
| 2026-04-29 12:57 | 9.06865 | -79.38331 | 56 ft | 16 kts | 243° |
| 2026-04-29 12:57 | 9.06847 | -79.38425 | 58 ft | 10 kts | 251° |
| 2026-04-29 12:58 | 9.06838 | -79.38452 | 60 ft | 1 kts | 250° |
| 2026-04-29 12:58 | 9.06832 | -79.38470 | 60 ft | 0 kts | 249° |